sensor_id;sensor_type;location;lat;lon;timestamp;P1;durP1;ratioP1;P2;durP2;ratioP2
67685;SDS011;54469;52.090;4.312;2023-02-15T00:00:03;66.3;;;31.8;;
67685;SDS011;54469;52.090;4.312;2023-02-15T00:05:02;66.3;;;31.8;;
67685;SDS011;54469;52.090;4.312;2023-02-15T00:10:03;69.2;;;32.2;;
67685;SDS011;54469;52.090;4.312;2023-02-15T00:15:03;69.2;;;32.2;;
67685;SDS011;54469;52.090;4.312;2023-02-15T00:20:03;69.7;;;31.1;;
67685;SDS011;54469;52.090;4.312;2023-02-15T00:25:02;67.2;;;32.3;;
67685;SDS011;54469;52.090;4.312;2023-02-15T00:30:02;75.2;;;33.6;;
67685;SDS011;54469;52.090;4.312;2023-02-15T00:35:03;69.2;;;32.7;;
67685;SDS011;54469;52.090;4.312;2023-02-15T00:40:03;73.4;;;33.79999999999999;;
67685;SDS011;54469;52.090;4.312;2023-02-15T00:45:02;73.4;;;33.79999999999999;;
67685;SDS011;54469;52.090;4.312;2023-02-15T00:50:03;75.5;;;34.1;;
67685;SDS011;54469;52.090;4.312;2023-02-15T00:55:03;69.8;;;33.3;;
67685;SDS011;54469;52.090;4.312;2023-02-15T01:00:03;69.8;;;33.3;;
67685;SDS011;54469;52.090;4.312;2023-02-15T01:05:02;73.6;;;33;;
67685;SDS011;54469;52.090;4.312;2023-02-15T01:10:03;74.1;;;35.70000000000001;;
67685;SDS011;54469;52.090;4.312;2023-02-15T01:15:03;72.3;;;31.9;;
67685;SDS011;54469;52.090;4.312;2023-02-15T01:20:04;77.9;;;34;;
67685;SDS011;54469;52.090;4.312;2023-02-15T01:25:03;77.9;;;34;;
67685;SDS011;54469;52.090;4.312;2023-02-15T01:30:02;77.9;;;34;;
67685;SDS011;54469;52.090;4.312;2023-02-15T01:35:02;81.6;;;35.79999999999999;;
67685;SDS011;54469;52.090;4.312;2023-02-15T01:40:03;81.6;;;35.79999999999999;;
67685;SDS011;54469;52.090;4.312;2023-02-15T01:45:03;81.6;;;35.79999999999999;;
67685;SDS011;54469;52.090;4.312;2023-02-15T01:50:04;78;;;35.9;;
67685;SDS011;54469;52.090;4.312;2023-02-15T01:55:02;80.1;;;36.79999999999999;;
67685;SDS011;54469;52.090;4.312;2023-02-15T02:00:03;79.3;;;34.6;;
67685;SDS011;54469;52.090;4.312;2023-02-15T02:05:03;79.3;;;34.6;;
67685;SDS011;54469;52.090;4.312;2023-02-15T02:10:03;78;;;36.29999999999999;;
67685;SDS011;54469;52.090;4.312;2023-02-15T02:15:03;72.4;;;33.6;;
67685;SDS011;54469;52.090;4.312;2023-02-15T02:20:08;71.6;;;32.6;;
67685;SDS011;54469;52.090;4.312;2023-02-15T02:25:19;71.6;;;32.6;;
67685;SDS011;54469;52.090;4.312;2023-02-15T02:30:08;75.7;;;34;;
67685;SDS011;54469;52.090;4.312;2023-02-15T02:35:04;72;;;32.1;;
67685;SDS011;54469;52.090;4.312;2023-02-15T02:40:03;72;;;32.1;;
67685;SDS011;54469;52.090;4.312;2023-02-15T02:45:03;66.2;;;33;;
67685;SDS011;54469;52.090;4.312;2023-02-15T02:50:04;69.7;;;32.4;;
67685;SDS011;54469;52.090;4.312;2023-02-15T02:55:03;69.7;;;32.4;;
67685;SDS011;54469;52.090;4.312;2023-02-15T03:00:03;69.7;;;32.4;;
67685;SDS011;54469;52.090;4.312;2023-02-15T03:05:03;72.4;;;32.5;;
67685;SDS011;54469;52.090;4.312;2023-02-15T03:10:04;80;;;33.4;;
67685;SDS011;54469;52.090;4.312;2023-02-15T03:15:04;68.4;;;32;;
67685;SDS011;54469;52.090;4.312;2023-02-15T03:20:04;68.4;;;32;;
67685;SDS011;54469;52.090;4.312;2023-02-15T03:25:04;70.3;;;33.3;;
67685;SDS011;54469;52.090;4.312;2023-02-15T03:30:03;70.3;;;33.3;;
67685;SDS011;54469;52.090;4.312;2023-02-15T03:35:03;71.6;;;32.1;;
67685;SDS011;54469;52.090;4.312;2023-02-15T03:40:03;69.1;;;32.1;;
67685;SDS011;54469;52.090;4.312;2023-02-15T03:45:03;69.1;;;32.1;;
67685;SDS011;54469;52.090;4.312;2023-02-15T03:50:04;69.1;;;32.1;;
67685;SDS011;54469;52.090;4.312;2023-02-15T03:55:03;71.7;;;32.8;;
67685;SDS011;54469;52.090;4.312;2023-02-15T04:00:04;64.5;;;30.8;;
67685;SDS011;54469;52.090;4.312;2023-02-15T04:05:03;68.5;;;31.9;;
67685;SDS011;54469;52.090;4.312;2023-02-15T04:10:03;68.3;;;30.9;;
67685;SDS011;54469;52.090;4.312;2023-02-15T04:15:03;68.3;;;30.9;;
67685;SDS011;54469;52.090;4.312;2023-02-15T04:20:02;68.3;;;30.9;;
67685;SDS011;54469;52.090;4.312;2023-02-15T04:25:02;73.5;;;31.3;;
67685;SDS011;54469;52.090;4.312;2023-02-15T04:30:03;68.3;;;30.4;;
67685;SDS011;54469;52.090;4.312;2023-02-15T04:35:03;68.3;;;30.4;;
67685;SDS011;54469;52.090;4.312;2023-02-15T04:40:03;71.2;;;31.3;;
67685;SDS011;54469;52.090;4.312;2023-02-15T04:45:03;66;;;30.1;;
67685;SDS011;54469;52.090;4.312;2023-02-15T04:50:03;62;;;29.6;;
67685;SDS011;54469;52.090;4.312;2023-02-15T04:55:03;69.1;;;30.7;;
67685;SDS011;54469;52.090;4.312;2023-02-15T05:00:02;66.6;;;29.7;;
67685;SDS011;54469;52.090;4.312;2023-02-15T05:05:02;66.6;;;29.7;;
67685;SDS011;54469;52.090;4.312;2023-02-15T05:10:03;69.3;;;29;;
67685;SDS011;54469;52.090;4.312;2023-02-15T05:15:03;68.5;;;30.1;;
67685;SDS011;54469;52.090;4.312;2023-02-15T05:20:03;72;;;30.1;;
67685;SDS011;54469;52.090;4.312;2023-02-15T05:25:03;65.4;;;28.9;;
67685;SDS011;54469;52.090;4.312;2023-02-15T05:30:02;62;;;27.6;;
67685;SDS011;54469;52.090;4.312;2023-02-15T05:35:02;63.2;;;28.8;;
67685;SDS011;54469;52.090;4.312;2023-02-15T05:40:03;66.7;;;29;;
67685;SDS011;54469;52.090;4.312;2023-02-15T05:45:03;71.5;;;29.6;;
67685;SDS011;54469;52.090;4.312;2023-02-15T05:50:03;60.3;;;28.1;;
67685;SDS011;54469;52.090;4.312;2023-02-15T05:55:03;64.1;;;28.8;;
67685;SDS011;54469;52.090;4.312;2023-02-15T06:00:03;60;;;27.8;;
67685;SDS011;54469;52.090;4.312;2023-02-15T06:05:03;69.2;;;29.2;;
67685;SDS011;54469;52.090;4.312;2023-02-15T06:10:03;60.5;;;28.6;;
67685;SDS011;54469;52.090;4.312;2023-02-15T06:15:02;62.5;;;28.7;;
67685;SDS011;54469;52.090;4.312;2023-02-15T06:20:02;62.5;;;28.7;;
67685;SDS011;54469;52.090;4.312;2023-02-15T06:25:03;65;;;27.9;;
67685;SDS011;54469;52.090;4.312;2023-02-15T06:30:04;66.2;;;28.9;;
67685;SDS011;54469;52.090;4.312;2023-02-15T06:35:03;60.9;;;28.7;;
67685;SDS011;54469;52.090;4.312;2023-02-15T06:40:03;60.9;;;28.7;;
67685;SDS011;54469;52.090;4.312;2023-02-15T06:45:03;63.4;;;27.9;;
67685;SDS011;54469;52.090;4.312;2023-02-15T06:50:02;60.6;;;27.6;;
67685;SDS011;54469;52.090;4.312;2023-02-15T06:55:03;60.6;;;27.6;;
67685;SDS011;54469;52.090;4.312;2023-02-15T07:00:02;57.7;;;25.2;;
67685;SDS011;54469;52.090;4.312;2023-02-15T07:05:02;59.9;;;26.9;;
67685;SDS011;54469;52.090;4.312;2023-02-15T07:10:03;63.7;;;27.6;;
67685;SDS011;54469;52.090;4.312;2023-02-15T07:15:02;63.7;;;27.6;;
67685;SDS011;54469;52.090;4.312;2023-02-15T07:20:03;63.7;;;27.6;;
67685;SDS011;54469;52.090;4.312;2023-02-15T07:25:03;60.8;;;26.2;;
67685;SDS011;54469;52.090;4.312;2023-02-15T07:30:03;56.2;;;26.2;;
67685;SDS011;54469;52.090;4.312;2023-02-15T07:35:02;51.8;;;22.7;;
67685;SDS011;54469;52.090;4.312;2023-02-15T07:40:02;51.8;;;22.7;;
67685;SDS011;54469;52.090;4.312;2023-02-15T07:45:03;51.7;;;24.1;;
67685;SDS011;54469;52.090;4.312;2023-02-15T07:50:03;51.7;;;24.1;;
67685;SDS011;54469;52.090;4.312;2023-02-15T07:55:03;65.2;;;26.8;;
67685;SDS011;54469;52.090;4.312;2023-02-15T08:00:03;55;;;26.1;;
67685;SDS011;54469;52.090;4.312;2023-02-15T08:05:02;59.2;;;25.4;;
67685;SDS011;54469;52.090;4.312;2023-02-15T08:10:02;54.4;;;25.6;;
67685;SDS011;54469;52.090;4.312;2023-02-15T08:15:03;59.5;;;25.9;;
67685;SDS011;54469;52.090;4.312;2023-02-15T08:20:03;60.2;;;27.2;;
67685;SDS011;54469;52.090;4.312;2023-02-15T08:25:03;53.5;;;25.9;;
67685;SDS011;54469;52.090;4.312;2023-02-15T08:30:02;56.2;;;26.5;;
67685;SDS011;54469;52.090;4.312;2023-02-15T08:35:02;56.2;;;26.5;;
67685;SDS011;54469;52.090;4.312;2023-02-15T08:40:03;55.5;;;25.4;;
67685;SDS011;54469;52.090;4.312;2023-02-15T08:45:02;51.6;;;22.5;;
67685;SDS011;54469;52.090;4.312;2023-02-15T08:50:02;59.1;;;26.3;;
67685;SDS011;54469;52.090;4.312;2023-02-15T08:55:03;52.6;;;24.7;;
67685;SDS011;54469;52.090;4.312;2023-02-15T09:00:03;50.2;;;25.8;;
67685;SDS011;54469;52.090;4.312;2023-02-15T09:05:03;46.1;;;24.5;;
67685;SDS011;54469;52.090;4.312;2023-02-15T09:10:03;38.20000000000001;;;19.8;;
67685;SDS011;54469;52.090;4.312;2023-02-15T09:15:02;45.8;;;24.4;;
67685;SDS011;54469;52.090;4.312;2023-02-15T09:20:03;46.9;;;26;;
67685;SDS011;54469;52.090;4.312;2023-02-15T09:25:02;52.6;;;26.7;;
67685;SDS011;54469;52.090;4.312;2023-02-15T09:30:02;47.9;;;25.6;;
67685;SDS011;54469;52.090;4.312;2023-02-15T09:35:03;29.5;;;17.899999999999995;;
67685;SDS011;54469;52.090;4.312;2023-02-15T09:40:02;29.5;;;17.899999999999995;;
67685;SDS011;54469;52.090;4.312;2023-02-15T09:45:05;50.7;;;27;;
67685;SDS011;54469;52.090;4.312;2023-02-15T09:50:03;45;;;26;;
67685;SDS011;54469;52.090;4.312;2023-02-15T09:55:07;45;;;26;;
67685;SDS011;54469;52.090;4.312;2023-02-15T10:00:05;45;;;26;;
67685;SDS011;54469;52.090;4.312;2023-02-15T10:05:07;45;;;26;;
67685;SDS011;54469;52.090;4.312;2023-02-15T10:10:06;43.2;;;24.8;;
67685;SDS011;54469;52.090;4.312;2023-02-15T10:15:06;45.4;;;24.6;;
67685;SDS011;54469;52.090;4.312;2023-02-15T10:20:06;45.1;;;25.7;;
67685;SDS011;54469;52.090;4.312;2023-02-15T10:25:07;35.20000000000001;;;20.9;;
67685;SDS011;54469;52.090;4.312;2023-02-15T10:30:06;30.8;;;17.399999999999995;;
67685;SDS011;54469;52.090;4.312;2023-02-15T10:35:03;52;;;27.6;;
67685;SDS011;54469;52.090;4.312;2023-02-15T10:40:05;43.7;;;26.4;;
67685;SDS011;54469;52.090;4.312;2023-02-15T10:45:06;40;;;24.4;;
67685;SDS011;54469;52.090;4.312;2023-02-15T10:50:08;45.3;;;27.8;;
67685;SDS011;54469;52.090;4.312;2023-02-15T10:55:06;41;;;24.3;;
67685;SDS011;54469;52.090;4.312;2023-02-15T11:00:05;44.7;;;25;;
67685;SDS011;54469;52.090;4.312;2023-02-15T11:05:05;45.4;;;27.1;;
67685;SDS011;54469;52.090;4.312;2023-02-15T11:10:11;34.4;;;21.5;;
67685;SDS011;54469;52.090;4.312;2023-02-15T11:15:03;39.79999999999999;;;25;;
67685;SDS011;54469;52.090;4.312;2023-02-15T11:20:06;39.79999999999999;;;25;;
67685;SDS011;54469;52.090;4.312;2023-02-15T11:25:06;41.3;;;26.3;;
67685;SDS011;54469;52.090;4.312;2023-02-15T11:30:05;43.7;;;27.6;;
67685;SDS011;54469;52.090;4.312;2023-02-15T11:35:03;40.6;;;22.3;;
67685;SDS011;54469;52.090;4.312;2023-02-15T11:40:03;42;;;24;;
67685;SDS011;54469;52.090;4.312;2023-02-15T11:45:04;37.29999999999999;;;23.4;;
67685;SDS011;54469;52.090;4.312;2023-02-15T11:50:02;34.5;;;19.2;;
67685;SDS011;54469;52.090;4.312;2023-02-15T11:55:09;44.8;;;26.5;;
67685;SDS011;54469;52.090;4.312;2023-02-15T12:00:03;45.2;;;27.7;;
67685;SDS011;54469;52.090;4.312;2023-02-15T12:05:03;43.8;;;26.7;;
67685;SDS011;54469;52.090;4.312;2023-02-15T12:10:04;43.8;;;26.7;;
67685;SDS011;54469;52.090;4.312;2023-02-15T12:15:03;39.29999999999999;;;26.6;;
67685;SDS011;54469;52.090;4.312;2023-02-15T12:20:03;39.29999999999999;;;26.6;;
67685;SDS011;54469;52.090;4.312;2023-02-15T12:25:04;43.2;;;27.6;;
67685;SDS011;54469;52.090;4.312;2023-02-15T12:30:03;46.2;;;25.7;;
67685;SDS011;54469;52.090;4.312;2023-02-15T12:35:06;46.2;;;25.7;;
67685;SDS011;54469;52.090;4.312;2023-02-15T12:40:10;42.2;;;25.9;;
67685;SDS011;54469;52.090;4.312;2023-02-15T12:45:03;46;;;27.6;;
67685;SDS011;54469;52.090;4.312;2023-02-15T12:50:05;48.2;;;28;;
67685;SDS011;54469;52.090;4.312;2023-02-15T12:55:10;40.70000000000001;;;23.9;;
67685;SDS011;54469;52.090;4.312;2023-02-15T13:00:03;40.70000000000001;;;23.9;;
67685;SDS011;54469;52.090;4.312;2023-02-15T13:05:04;40.70000000000001;;;23.9;;
67685;SDS011;54469;52.090;4.312;2023-02-15T13:10:03;41.9;;;25.5;;
67685;SDS011;54469;52.090;4.312;2023-02-15T13:15:02;41.9;;;25.5;;
67685;SDS011;54469;52.090;4.312;2023-02-15T13:20:03;35.9;;;20.3;;
67685;SDS011;54469;52.090;4.312;2023-02-15T13:25:03;38.9;;;20.3;;
67685;SDS011;54469;52.090;4.312;2023-02-15T13:30:04;42.6;;;23.7;;
67685;SDS011;54469;52.090;4.312;2023-02-15T13:35:04;42.6;;;23.7;;
67685;SDS011;54469;52.090;4.312;2023-02-15T13:40:03;41.6;;;24.7;;
67685;SDS011;54469;52.090;4.312;2023-02-15T13:45:07;41.6;;;24.7;;
67685;SDS011;54469;52.090;4.312;2023-02-15T13:50:07;33.6;;;22;;
67685;SDS011;54469;52.090;4.312;2023-02-15T13:55:08;37.70000000000001;;;24.6;;
67685;SDS011;54469;52.090;4.312;2023-02-15T14:00:08;39.6;;;23.1;;
67685;SDS011;54469;52.090;4.312;2023-02-15T14:05:11;34.5;;;23.4;;
67685;SDS011;54469;52.090;4.312;2023-02-15T14:10:09;37.4;;;22.9;;
67685;SDS011;54469;52.090;4.312;2023-02-15T14:15:23;37.4;;;22.9;;
67685;SDS011;54469;52.090;4.312;2023-02-15T14:20:04;36.9;;;21.7;;
67685;SDS011;54469;52.090;4.312;2023-02-15T14:25:06;36.9;;;21.7;;
67685;SDS011;54469;52.090;4.312;2023-02-15T14:30:04;39.20000000000001;;;23.8;;
67685;SDS011;54469;52.090;4.312;2023-02-15T14:35:03;39.20000000000001;;;23.8;;
67685;SDS011;54469;52.090;4.312;2023-02-15T14:40:03;36.9;;;23;;
67685;SDS011;54469;52.090;4.312;2023-02-15T14:45:04;35.1;;;19;;
67685;SDS011;54469;52.090;4.312;2023-02-15T14:50:30;39.70000000000001;;;22.8;;
67685;SDS011;54469;52.090;4.312;2023-02-15T14:55:04;39.70000000000001;;;22.8;;
67685;SDS011;54469;52.090;4.312;2023-02-15T15:00:36;42.2;;;24;;
67685;SDS011;54469;52.090;4.312;2023-02-15T15:05:06;41;;;19.399999999999995;;
67685;SDS011;54469;52.090;4.312;2023-02-15T15:10:03;38.70000000000001;;;21.5;;
67685;SDS011;54469;52.090;4.312;2023-02-15T15:15:03;42.2;;;22.9;;
67685;SDS011;54469;52.090;4.312;2023-02-15T15:20:04;32.8;;;16.899999999999995;;
67685;SDS011;54469;52.090;4.312;2023-02-15T15:25:02;40.5;;;21.7;;
67685;SDS011;54469;52.090;4.312;2023-02-15T15:30:02;42.6;;;22.3;;
67685;SDS011;54469;52.090;4.312;2023-02-15T15:35:10;42.6;;;22.3;;
67685;SDS011;54469;52.090;4.312;2023-02-15T15:40:15;44.7;;;19.5;;
67685;SDS011;54469;52.090;4.312;2023-02-15T15:45:08;35.9;;;19.2;;
67685;SDS011;54469;52.090;4.312;2023-02-15T15:50:04;35.9;;;19.2;;
67685;SDS011;54469;52.090;4.312;2023-02-15T15:55:03;46.4;;;23.3;;
67685;SDS011;54469;52.090;4.312;2023-02-15T16:00:04;42.6;;;22;;
67685;SDS011;54469;52.090;4.312;2023-02-15T16:05:06;46.8;;;22.7;;
67685;SDS011;54469;52.090;4.312;2023-02-15T16:10:04;37.70000000000001;;;20.5;;
67685;SDS011;54469;52.090;4.312;2023-02-15T16:15:04;45.3;;;21.1;;
67685;SDS011;54469;52.090;4.312;2023-02-15T16:20:05;50.1;;;22.5;;
67685;SDS011;54469;52.090;4.312;2023-02-15T16:25:08;38.9;;;20.100000000000005;;
67685;SDS011;54469;52.090;4.312;2023-02-15T16:30:39;46.4;;;22.4;;
67685;SDS011;54469;52.090;4.312;2023-02-15T16:35:03;37.9;;;19.3;;
67685;SDS011;54469;52.090;4.312;2023-02-15T16:40:02;31.1;;;15.6;;
67685;SDS011;54469;52.090;4.312;2023-02-15T16:45:05;45;;;21.3;;
67685;SDS011;54469;52.090;4.312;2023-02-15T16:50:03;39.6;;;19.5;;
67685;SDS011;54469;52.090;4.312;2023-02-15T16:55:03;39.6;;;19.5;;
67685;SDS011;54469;52.090;4.312;2023-02-15T17:00:04;51.8;;;24.8;;
67685;SDS011;54469;52.090;4.312;2023-02-15T17:05:10;49.4;;;23.8;;
67685;SDS011;54469;52.090;4.312;2023-02-15T17:10:16;48.2;;;22.6;;
67685;SDS011;54469;52.090;4.312;2023-02-15T17:15:02;42.4;;;19.3;;
67685;SDS011;54469;52.090;4.312;2023-02-15T17:20:02;49.1;;;25.1;;
67685;SDS011;54469;52.090;4.312;2023-02-15T17:25:03;37.79999999999999;;;20;;
67685;SDS011;54469;52.090;4.312;2023-02-15T17:30:05;52.2;;;24.3;;
67685;SDS011;54469;52.090;4.312;2023-02-15T17:35:14;36.6;;;18.899999999999995;;
67685;SDS011;54469;52.090;4.312;2023-02-15T17:40:07;50.8;;;25.9;;
67685;SDS011;54469;52.090;4.312;2023-02-15T17:45:03;45.9;;;22.9;;
67685;SDS011;54469;52.090;4.312;2023-02-15T17:50:03;51.3;;;25;;
67685;SDS011;54469;52.090;4.312;2023-02-15T17:55:07;46.2;;;22.4;;
67685;SDS011;54469;52.090;4.312;2023-02-15T18:00:03;43.8;;;23.5;;
67685;SDS011;54469;52.090;4.312;2023-02-15T18:05:02;44.8;;;21;;
67685;SDS011;54469;52.090;4.312;2023-02-15T18:10:05;44.8;;;21;;
67685;SDS011;54469;52.090;4.312;2023-02-15T18:15:03;44.8;;;21;;
67685;SDS011;54469;52.090;4.312;2023-02-15T18:20:03;43.8;;;22.6;;
67685;SDS011;54469;52.090;4.312;2023-02-15T18:25:03;26.8;;;13.9;;
67685;SDS011;54469;52.090;4.312;2023-02-15T18:30:03;26.8;;;13.9;;
67685;SDS011;54469;52.090;4.312;2023-02-15T18:35:03;40;;;20.3;;
67685;SDS011;54469;52.090;4.312;2023-02-15T18:40:02;40;;;20.3;;
67685;SDS011;54469;52.090;4.312;2023-02-15T18:45:06;32.1;;;15.1;;
67685;SDS011;54469;52.090;4.312;2023-02-15T18:50:03;36.70000000000001;;;16.1;;
67685;SDS011;54469;52.090;4.312;2023-02-15T18:55:04;36;;;17.600000000000005;;
67685;SDS011;54469;52.090;4.312;2023-02-15T19:00:03;45.2;;;21.2;;
67685;SDS011;54469;52.090;4.312;2023-02-15T19:05:02;33.79999999999999;;;17.600000000000005;;
67685;SDS011;54469;52.090;4.312;2023-02-15T19:10:03;36.1;;;16.8;;
67685;SDS011;54469;52.090;4.312;2023-02-15T19:15:02;28.5;;;14;;
67685;SDS011;54469;52.090;4.312;2023-02-15T19:20:03;28.5;;;14;;
67685;SDS011;54469;52.090;4.312;2023-02-15T19:25:03;33;;;17.100000000000005;;
67685;SDS011;54469;52.090;4.312;2023-02-15T19:30:06;28.3;;;14.7;;
67685;SDS011;54469;52.090;4.312;2023-02-15T19:35:03;30.8;;;14.3;;
67685;SDS011;54469;52.090;4.312;2023-02-15T19:40:03;34.1;;;17.399999999999995;;
67685;SDS011;54469;52.090;4.312;2023-02-15T19:45:08;34.9;;;16.1;;
67685;SDS011;54469;52.090;4.312;2023-02-15T19:50:03;32.5;;;16.6;;
67685;SDS011;54469;52.090;4.312;2023-02-15T19:55:03;40.70000000000001;;;18.399999999999995;;
67685;SDS011;54469;52.090;4.312;2023-02-15T20:00:08;21.9;;;11;;
67685;SDS011;54469;52.090;4.312;2023-02-15T20:05:03;40.9;;;18.2;;
67685;SDS011;54469;52.090;4.312;2023-02-15T20:10:03;35.5;;;16.5;;
67685;SDS011;54469;52.090;4.312;2023-02-15T20:15:04;42.8;;;20.399999999999995;;
67685;SDS011;54469;52.090;4.312;2023-02-15T20:20:03;42.8;;;20.399999999999995;;
67685;SDS011;54469;52.090;4.312;2023-02-15T20:25:03;37.6;;;17.8;;
67685;SDS011;54469;52.090;4.312;2023-02-15T20:30:03;27.6;;;13.5;;
67685;SDS011;54469;52.090;4.312;2023-02-15T20:35:02;37.4;;;17.3;;
67685;SDS011;54469;52.090;4.312;2023-02-15T20:40:04;42.2;;;20.6;;
67685;SDS011;54469;52.090;4.312;2023-02-15T20:45:08;36.6;;;17.8;;
67685;SDS011;54469;52.090;4.312;2023-02-15T20:50:08;26.6;;;12.8;;
67685;SDS011;54469;52.090;4.312;2023-02-15T20:55:04;40.4;;;18.7;;
67685;SDS011;54469;52.090;4.312;2023-02-15T21:00:02;37.79999999999999;;;17.899999999999995;;
67685;SDS011;54469;52.090;4.312;2023-02-15T21:05:07;42.1;;;21.7;;
67685;SDS011;54469;52.090;4.312;2023-02-15T21:10:02;29.4;;;14.9;;
67685;SDS011;54469;52.090;4.312;2023-02-15T21:15:06;41.3;;;19.7;;
67685;SDS011;54469;52.090;4.312;2023-02-15T21:20:03;31.3;;;14.5;;
67685;SDS011;54469;52.090;4.312;2023-02-15T21:25:02;31.3;;;14.5;;
67685;SDS011;54469;52.090;4.312;2023-02-15T21:30:04;43.3;;;19.5;;
67685;SDS011;54469;52.090;4.312;2023-02-15T21:35:02;38.70000000000001;;;19.600000000000005;;
67685;SDS011;54469;52.090;4.312;2023-02-15T21:40:03;30.4;;;15.4;;
67685;SDS011;54469;52.090;4.312;2023-02-15T21:45:05;29.6;;;14.3;;
67685;SDS011;54469;52.090;4.312;2023-02-15T21:50:03;39.5;;;21.4;;
67685;SDS011;54469;52.090;4.312;2023-02-15T21:55:04;39.6;;;18.5;;
67685;SDS011;54469;52.090;4.312;2023-02-15T22:00:03;40.29999999999999;;;19.899999999999995;;
67685;SDS011;54469;52.090;4.312;2023-02-15T22:05:04;31.8;;;16.5;;
67685;SDS011;54469;52.090;4.312;2023-02-15T22:10:02;37.9;;;17.899999999999995;;
67685;SDS011;54469;52.090;4.312;2023-02-15T22:15:02;43.3;;;21.4;;
67685;SDS011;54469;52.090;4.312;2023-02-15T22:20:04;44.6;;;20;;
67685;SDS011;54469;52.090;4.312;2023-02-15T22:25:02;36.6;;;17.8;;
67685;SDS011;54469;52.090;4.312;2023-02-15T22:30:05;31;;;15.1;;
67685;SDS011;54469;52.090;4.312;2023-02-15T22:35:03;31;;;15.1;;
67685;SDS011;54469;52.090;4.312;2023-02-15T22:40:02;31;;;15.1;;
67685;SDS011;54469;52.090;4.312;2023-02-15T22:45:02;31;;;15.1;;
67685;SDS011;54469;52.090;4.312;2023-02-15T22:50:04;46.5;;;21.4;;
67685;SDS011;54469;52.090;4.312;2023-02-15T22:55:02;42.8;;;20.100000000000005;;
67685;SDS011;54469;52.090;4.312;2023-02-15T23:00:03;37;;;17.2;;
67685;SDS011;54469;52.090;4.312;2023-02-15T23:05:03;41.8;;;19.8;;
67685;SDS011;54469;52.090;4.312;2023-02-15T23:10:02;36;;;15.1;;
67685;SDS011;54469;52.090;4.312;2023-02-15T23:15:04;43.9;;;20.2;;
67685;SDS011;54469;52.090;4.312;2023-02-15T23:20:03;38.79999999999999;;;18.7;;
67685;SDS011;54469;52.090;4.312;2023-02-15T23:25:03;38.20000000000001;;;19.7;;
67685;SDS011;54469;52.090;4.312;2023-02-15T23:30:03;49.2;;;21.8;;
67685;SDS011;54469;52.090;4.312;2023-02-15T23:35:04;30.5;;;16.3;;
67685;SDS011;54469;52.090;4.312;2023-02-15T23:40:03;45.3;;;22.6;;
67685;SDS011;54469;52.090;4.312;2023-02-15T23:45:02;35.6;;;17.600000000000005;;
67685;SDS011;54469;52.090;4.312;2023-02-15T23:50:04;32.2;;;15.7;;
67685;SDS011;54469;52.090;4.312;2023-02-15T23:55:03;44.4;;;21.2;;
